Aérodrome :
LOGIN :

S'inscrire | Disclaimer

   EN    FR    IT 

 










Légende :    VFR   VFR Marginal   IFR   IFR Intensif   IFR Très Intensif
Visi : 
Plafond : 
>= 8 km
>= 3000ft
5 à 8 km
1000 à 3000 ft
1500m à 5 km
500 à 1000 ft
800 à 1500m
200 à 500 ft
< 800m
< 200 ft
Symboles :   Orages  Brouillard  Fortes neiges  Fortes précipitations  Vent > 20 kt
SIGMETs :   Divers  Orages  Givrage  Turbulence  Onde Orograph.  Cendres Volcan.







- Altitude de l'aérodrome : 1276 ft
- Code IATA : STR


EDDS - Stuttgart

DERNIER METAR :
  • 202020Z 13001KT 7000 -RASN FEW007 SCT018 OVC026 01/01 Q0998 NOSIG

METARs EXPIRÉS :
  • 201950Z VRB01KT 9000 -SNRA FEW005 SCT016 OVC033 01/01 Q0998 BECMG BKN010
  • 201920Z VRB02KT 6000 -SN FEW004 SCT013 OVC033 01/01 Q0998 BECMG BKN010
  • 201850Z VRB02KT 6000 -SN FEW005 SCT030 OVC048 01/00 Q0997 RESN BECMG BKN010
  • 201820Z 18002KT 2200 SN SCT004 OVC006 01/00 Q0997 TEMPO BKN004
  • 201750Z VRB01KT 3500 -SNRA BKN006 OVC010 02/01 Q0997 RERA TEMPO SN BKN004

TAF AMD TAF EDDS
Valide du 20 à 18h jusqu'au 21 à 18h UTC


201822Z 2018/2118 15005KT 9999 BKN015
TEMPO 2018/2109 4000 RASN BKN012
PROB40
TEMPO 2018/2104 2500 SN OVC004
BECMG 2022/2024 28010KT
Pas de NOTAMs connus pour ce terrain.
3 SIGMETs publiés pour la FIR Langen (EDGG) :
 
Turbulence forte
EDGG SIGMET 5 VALID 202100/210000 EDZF
EDGG LANGEN FIR SEV TURB FCST W OF E01015 FL200/280 MOV NE 15KT NC=
Turbulence forte
EDGG SIGMET 4 VALID 201816/202100 EDZF
EDGG LANGEN FIR SEV TURB FCST SW OF LINE N5045 E00800 - N5220 E00705 FL180/300 MOV ENE NC=
Turbulence forte
EDGG SIGMET 3 VALID 201805/202100 EDZF
EDGG LANGEN FIR SEV TURB FCST WI N5048 E00802 - N4755 E00852 - N4736 E00741 - N4900 E00809 - N4911 E00644 - N5025 E00620 - N5025 E00621 - N5048 E00802 FL180/300 MOV ENE NC=



MET'MAP, la Météo Aéronautique d'un coup d'oeil ! - Copyright ORBIFLY Décembre 2007 - Disclaimer

ORBIFLY MET'MAP TEAM :

Programmation & Développement : Alexandra Zaïnal
Conception & Développement : Baudouin d'Aumeries
Co-Programmation & Développement : Marc-Olivier Méhu
Soutien technique & logistique : Manuel Goepfert

Contact : metmap@orbifly.com




SOURCES & CREDITS :

   NOAA